#dbistima — V2PX5 — position and weather

sailwx.info

Track history (hours):
 
Tides and Currents Weather Stations Pressure Air Temp Water Temp Dewpoint Dewpoint Depression Visibility Wind Speed Wind Dir Waves Ship Positions

#dbistima

Last reported at 2016-Aug-25 16:12 UTC. Time now 2016-Aug-25 18:28 UTC.
Position N 59°08' E 004°48'.

MMSI: 304010972.

Date/timePositionNaut miles runAvg speedWind from/ knotsBaromVisibWave heightAir tempDewpointWater temp
2016-Aug-25 16:12N 59°08' E 004°48'710.6
2016-Aug-25 15:33N 59°02' E 004°56'1010.4
2016-Aug-25 14:33N 58°53' E 005°05'1010.1
2016-Aug-25 13:33N 58°44' E 005°15'1010.4
2016-Aug-25 12:33N 58°36' E 005°27'1511.1
2016-Aug-25 11:10N 58°25' E 005°47'711.3
2016-Aug-25 10:33N 58°20' E 005°56'1110.9
2016-Aug-25 09:33N 58°12' E 006°12'1010.2
2016-Aug-25 08:33N 58°06' E 006°27'1010.4
2016-Aug-25 07:33N 58°01' E 006°43'1010.4
2016-Aug-25 06:33N 57°56' E 007°01'4310.7
2016-Aug-25 02:34N 58°04' E 008°20'1111.4
2016-Aug-25 01:33N 58°10' E 008°39'6310.5
2016-Aug-24 19:33N 58°48' E 010°15'1010.1
2016-Aug-24 18:34N 58°55' E 010°30'1010.1
2016-Aug-24 17:33N 59°01' E 010°45'7 7.4
2016-Aug-24 16:34N 59°04' E 010°58'7 6.8
2016-Aug-24 15:33N 59°11' E 010°57'0 0.0
2016-Aug-24 14:33N 59°11' E 010°57'0 0.0
2016-Aug-24 13:30N 59°11' E 010°57'0 0.0
2016-Aug-24 12:33N 59°11' E 010°57'0 0.0
2016-Aug-24 11:33N 59°11' E 010°57'0 0.0
2016-Aug-24 10:33N 59°11' E 010°57'0 0.0
2016-Aug-24 09:33N 59°11' E 010°57'0 0.0
2016-Aug-24 08:33N 59°11' E 010°57'0 0.0
2016-Aug-24 07:33N 59°11' E 010°57'0 0.0
2016-Aug-24 06:33N 59°11' E 010°57'0 0.0
2016-Aug-24 04:33N 59°11' E 010°57'0 0.0
2016-Aug-24 03:33N 59°11' E 010°57'0 0.0
2016-Aug-24 02:33N 59°11' E 010°57'0 0.0
2016-Aug-24 01:33N 59°11' E 010°57'0 0.0
2016-Aug-24 00:30N 59°11' E 010°57'0 0.0
2016-Aug-23 23:33N 59°11' E 010°57'0 0.0
2016-Aug-23 22:33N 59°11' E 010°57'0 0.0
2016-Aug-23 21:33N 59°11' E 010°57'0 0.2
2016-Aug-23 20:33N 59°11' E 010°57'9 8.9
2016-Aug-23 19:33N 59°02' E 010°58'8 8.1
2016-Aug-23 18:33N 58°58' E 010°44'1111.1
2016-Aug-23 17:33N 58°48' E 010°52'10 9.9
2016-Aug-23 16:33N 58°38' E 010°52'1010.1
2016-Aug-23 15:33N 58°28' E 010°51'1010.4
2016-Aug-23 14:33N 58°17' E 010°50'1110.5
2016-Aug-23 13:29N 58°06' E 010°49'910.2
2016-Aug-23 12:33N 57°57' E 010°47'1010.4
2016-Aug-23 11:33N 57°47' E 010°46'10 2.2
2016-Aug-23 07:06N 57°41' E 011°01'810.7
2016-Aug-23 06:19N 57°35' E 011°12'811.0
2016-Aug-23 05:33N 57°29' E 011°24'1110.9
2016-Aug-23 04:33N 57°19' E 011°32'2411.1
2016-Aug-23 02:26N 56°57' E 011°46'910.8
2016-Aug-23 01:33N 56°48' E 011°52'1010.3
2016-Aug-23 00:33N 56°38' E 011°57'3110.0
2016-Aug-22 21:30N 56°07' E 011°57'12 9.9
2016-Aug-22 20:19N 55°57' E 011°50'3 3.6
2016-Aug-22 19:30N 55°57' E 011°55'3 0.1
2016-Aug-21 13:18N 55°58' E 012°01'2 3.2
2016-Aug-21 12:34N 55°57' E 011°57'5 4.1
2016-Aug-21 11:19N 56°00' E 011°51'9 9.7
2016-Aug-21 10:26N 56°09' E 011°53'37 9.5
2016-Aug-21 06:33N 56°46' E 011°52'10 9.9
2016-Aug-21 05:33N 56°55' E 011°46'10 9.9
2016-Aug-21 04:33N 57°04' E 011°40'9 9.4
2016-Aug-21 03:33N 57°13' E 011°34'9 9.2
2016-Aug-21 02:34N 57°22' E 011°28'9 9.1
2016-Aug-21 01:34N 57°30' E 011°20'9 9.3
2016-Aug-21 00:34N 57°36' E 011°07'9 9.3
2016-Aug-20 23:34N 57°42' E 010°55'9 9.0
2016-Aug-20 22:33N 57°47' E 010°40'139 9.2
2016-Aug-20 07:33N 57°49' E 006°20'8 8.3
2016-Aug-20 06:33N 57°55' E 006°08'8 8.5
2016-Aug-20 05:33N 58°00' E 005°56'35 8.5
2016-Aug-20 01:24N 58°24' E 005°07'8 9.8
2016-Aug-20 00:33N 58°30' E 004°56'10 9.6
2016-Aug-19 23:34N 58°37' E 004°43'9 9.3
2016-Aug-19 22:34N 58°44' E 004°31'36 9.1
2016-Aug-19 18:34N 59°17' E 004°03'10 9.6
2016-Aug-19 17:31N 59°27' E 004°03'9 9.6
2016-Aug-19 16:33N 59°36' E 004°03'438 9.5
2016-Aug-17 18:33N 66°06' E 011°21'20 9.5
2016-Aug-17 16:28N 66°16' E 012°03'9 9.5
2016-Aug-17 15:33N 66°15' E 012°25'  
Track history (hours):
 
Tides and Currents Weather Stations Pressure Air Temp Water Temp Dewpoint Dewpoint Depression Visibility Wind Speed Wind Dir Waves Ship Positions

#dbistima

Last reported at 2016-Aug-25 16:12 UTC. Time now 2016-Aug-25 18:28 UTC.
Position N 59°08' E 004°48'.

MMSI: 304010972.

Date/timePositionNaut miles runAvg speedWind from/ knotsBaromVisibWave heightAir tempDewpointWater temp
2016-Aug-25 16:12N 59°08' E 004°48'710.6
2016-Aug-25 15:33N 59°02' E 004°56'1010.4
2016-Aug-25 14:33N 58°53' E 005°05'1010.1
2016-Aug-25 13:33N 58°44' E 005°15'1010.4
2016-Aug-25 12:33N 58°36' E 005°27'1511.1
2016-Aug-25 11:10N 58°25' E 005°47'711.3
2016-Aug-25 10:33N 58°20' E 005°56'1110.9
2016-Aug-25 09:33N 58°12' E 006°12'1010.2
2016-Aug-25 08:33N 58°06' E 006°27'1010.4
2016-Aug-25 07:33N 58°01' E 006°43'1010.4
2016-Aug-25 06:33N 57°56' E 007°01'4310.7
2016-Aug-25 02:34N 58°04' E 008°20'1111.4
2016-Aug-25 01:33N 58°10' E 008°39'6310.5
2016-Aug-24 19:33N 58°48' E 010°15'1010.1
2016-Aug-24 18:34N 58°55' E 010°30'1010.1
2016-Aug-24 17:33N 59°01' E 010°45'7 7.4
2016-Aug-24 16:34N 59°04' E 010°58'7 6.8
2016-Aug-24 15:33N 59°11' E 010°57'0 0.0
2016-Aug-24 14:33N 59°11' E 010°57'0 0.0
2016-Aug-24 13:30N 59°11' E 010°57'0 0.0
2016-Aug-24 12:33N 59°11' E 010°57'0 0.0
2016-Aug-24 11:33N 59°11' E 010°57'0 0.0
2016-Aug-24 10:33N 59°11' E 010°57'0 0.0
2016-Aug-24 09:33N 59°11' E 010°57'0 0.0
2016-Aug-24 08:33N 59°11' E 010°57'0 0.0
2016-Aug-24 07:33N 59°11' E 010°57'0 0.0
2016-Aug-24 06:33N 59°11' E 010°57'0 0.0
2016-Aug-24 04:33N 59°11' E 010°57'0 0.0
2016-Aug-24 03:33N 59°11' E 010°57'0 0.0
2016-Aug-24 02:33N 59°11' E 010°57'0 0.0
2016-Aug-24 01:33N 59°11' E 010°57'0 0.0
2016-Aug-24 00:30N 59°11' E 010°57'0 0.0
2016-Aug-23 23:33N 59°11' E 010°57'0 0.0
2016-Aug-23 22:33N 59°11' E 010°57'0 0.0
2016-Aug-23 21:33N 59°11' E 010°57'0 0.2
2016-Aug-23 20:33N 59°11' E 010°57'9 8.9
2016-Aug-23 19:33N 59°02' E 010°58'8 8.1
2016-Aug-23 18:33N 58°58' E 010°44'1111.1
2016-Aug-23 17:33N 58°48' E 010°52'10 9.9
2016-Aug-23 16:33N 58°38' E 010°52'1010.1
2016-Aug-23 15:33N 58°28' E 010°51'1010.4
2016-Aug-23 14:33N 58°17' E 010°50'1110.5
2016-Aug-23 13:29N 58°06' E 010°49'910.2
2016-Aug-23 12:33N 57°57' E 010°47'1010.4
2016-Aug-23 11:33N 57°47' E 010°46'10 2.2
2016-Aug-23 07:06N 57°41' E 011°01'810.7
2016-Aug-23 06:19N 57°35' E 011°12'811.0
2016-Aug-23 05:33N 57°29' E 011°24'1110.9
2016-Aug-23 04:33N 57°19' E 011°32'2411.1
2016-Aug-23 02:26N 56°57' E 011°46'910.8
2016-Aug-23 01:33N 56°48' E 011°52'1010.3
2016-Aug-23 00:33N 56°38' E 011°57'3110.0
2016-Aug-22 21:30N 56°07' E 011°57'12 9.9
2016-Aug-22 20:19N 55°57' E 011°50'3 3.6
2016-Aug-22 19:30N 55°57' E 011°55'3 0.1
2016-Aug-21 13:18N 55°58' E 012°01'2 3.2
2016-Aug-21 12:34N 55°57' E 011°57'5 4.1
2016-Aug-21 11:19N 56°00' E 011°51'9 9.7
2016-Aug-21 10:26N 56°09' E 011°53'37 9.5
2016-Aug-21 06:33N 56°46' E 011°52'10 9.9
2016-Aug-21 05:33N 56°55' E 011°46'10 9.9
2016-Aug-21 04:33N 57°04' E 011°40'9 9.4
2016-Aug-21 03:33N 57°13' E 011°34'9 9.2
2016-Aug-21 02:34N 57°22' E 011°28'9 9.1
2016-Aug-21 01:34N 57°30' E 011°20'9 9.3
2016-Aug-21 00:34N 57°36' E 011°07'9 9.3
2016-Aug-20 23:34N 57°42' E 010°55'9 9.0
2016-Aug-20 22:33N 57°47' E 010°40'139 9.2
2016-Aug-20 07:33N 57°49' E 006°20'8 8.3
2016-Aug-20 06:33N 57°55' E 006°08'8 8.5
2016-Aug-20 05:33N 58°00' E 005°56'35 8.5
2016-Aug-20 01:24N 58°24' E 005°07'8 9.8
2016-Aug-20 00:33N 58°30' E 004°56'10 9.6
2016-Aug-19 23:34N 58°37' E 004°43'9 9.3
2016-Aug-19 22:34N 58°44' E 004°31'36 9.1
2016-Aug-19 18:34N 59°17' E 004°03'10 9.6
2016-Aug-19 17:31N 59°27' E 004°03'9 9.6
2016-Aug-19 16:33N 59°36' E 004°03'438 9.5
2016-Aug-17 18:33N 66°06' E 011°21'20 9.5
2016-Aug-17 16:28N 66°16' E 012°03'9 9.5
2016-Aug-17 15:33N 66°15' E 012°25'  

Dump ship's entire track history